sensor_id;sensor_type;location;lat;lon;timestamp;P1;durP1;ratioP1;P2;durP2;ratioP2
3781;SDS011;6881;49.962;7.718;2024-01-30T00:01:11;13.60;;;7.73;;
3781;SDS011;6881;49.962;7.718;2024-01-30T00:03:36;15.30;;;9.30;;
3781;SDS011;6881;49.962;7.718;2024-01-30T00:06:02;13.17;;;8.43;;
3781;SDS011;6881;49.962;7.718;2024-01-30T00:08:28;13.33;;;7.30;;
3781;SDS011;6881;49.962;7.718;2024-01-30T00:10:53;14.77;;;8.27;;
3781;SDS011;6881;49.962;7.718;2024-01-30T00:13:19;12.13;;;7.47;;
3781;SDS011;6881;49.962;7.718;2024-01-30T00:15:45;12.43;;;7.90;;
3781;SDS011;6881;49.962;7.718;2024-01-30T00:18:10;10.00;;;7.33;;
3781;SDS011;6881;49.962;7.718;2024-01-30T00:20:35;9.10;;;5.57;;
3781;SDS011;6881;49.962;7.718;2024-01-30T00:23:01;9.70;;;6.90;;
3781;SDS011;6881;49.962;7.718;2024-01-30T00:25:26;10.60;;;6.50;;
3781;SDS011;6881;49.962;7.718;2024-01-30T00:27:52;8.67;;;7.03;;
3781;SDS011;6881;49.962;7.718;2024-01-30T00:30:17;11.53;;;8.17;;
3781;SDS011;6881;49.962;7.718;2024-01-30T00:32:42;10.93;;;7.30;;
3781;SDS011;6881;49.962;7.718;2024-01-30T00:35:08;10.13;;;6.87;;
3781;SDS011;6881;49.962;7.718;2024-01-30T00:37:35;12.10;;;5.50;;
3781;SDS011;6881;49.962;7.718;2024-01-30T00:40:00;12.60;;;6.60;;
3781;SDS011;6881;49.962;7.718;2024-01-30T00:42:25;8.17;;;5.43;;
3781;SDS011;6881;49.962;7.718;2024-01-30T00:44:51;10.00;;;7.40;;
3781;SDS011;6881;49.962;7.718;2024-01-30T00:47:16;9.80;;;7.60;;
3781;SDS011;6881;49.962;7.718;2024-01-30T00:49:41;9.10;;;6.80;;
3781;SDS011;6881;49.962;7.718;2024-01-30T00:52:07;8.70;;;6.17;;
3781;SDS011;6881;49.962;7.718;2024-01-30T00:54:32;10.73;;;7.40;;
3781;SDS011;6881;49.962;7.718;2024-01-30T00:56:58;11.63;;;6.60;;
3781;SDS011;6881;49.962;7.718;2024-01-30T00:59:23;10.57;;;6.83;;
3781;SDS011;6881;49.962;7.718;2024-01-30T01:01:48;8.37;;;6.10;;
3781;SDS011;6881;49.962;7.718;2024-01-30T01:04:14;9.63;;;7.10;;
3781;SDS011;6881;49.962;7.718;2024-01-30T01:06:39;10.27;;;5.50;;
3781;SDS011;6881;49.962;7.718;2024-01-30T01:09:07;6.93;;;4.67;;
3781;SDS011;6881;49.962;7.718;2024-01-30T01:11:32;9.17;;;6.40;;
3781;SDS011;6881;49.962;7.718;2024-01-30T01:13:58;9.70;;;7.10;;
3781;SDS011;6881;49.962;7.718;2024-01-30T01:16:23;9.70;;;5.90;;
3781;SDS011;6881;49.962;7.718;2024-01-30T01:18:48;7.90;;;5.43;;
3781;SDS011;6881;49.962;7.718;2024-01-30T01:21:14;12.73;;;5.60;;
3781;SDS011;6881;49.962;7.718;2024-01-30T01:23:39;11.97;;;5.40;;
3781;SDS011;6881;49.962;7.718;2024-01-30T01:26:04;9.40;;;5.30;;
3781;SDS011;6881;49.962;7.718;2024-01-30T01:28:30;7.03;;;5.27;;
3781;SDS011;6881;49.962;7.718;2024-01-30T01:30:56;7.53;;;4.93;;
3781;SDS011;6881;49.962;7.718;2024-01-30T01:33:24;9.10;;;5.53;;
3781;SDS011;6881;49.962;7.718;2024-01-30T01:35:49;7.33;;;5.27;;
3781;SDS011;6881;49.962;7.718;2024-01-30T01:38:15;9.63;;;5.40;;
3781;SDS011;6881;49.962;7.718;2024-01-30T01:40:40;7.63;;;6.00;;
3781;SDS011;6881;49.962;7.718;2024-01-30T01:43:06;6.43;;;4.93;;
3781;SDS011;6881;49.962;7.718;2024-01-30T01:45:31;8.93;;;6.00;;
3781;SDS011;6881;49.962;7.718;2024-01-30T01:47:56;10.37;;;7.00;;
3781;SDS011;6881;49.962;7.718;2024-01-30T01:50:22;8.43;;;6.63;;
3781;SDS011;6881;49.962;7.718;2024-01-30T01:52:48;11.57;;;7.07;;
3781;SDS011;6881;49.962;7.718;2024-01-30T01:55:14;10.30;;;6.33;;
3781;SDS011;6881;49.962;7.718;2024-01-30T01:57:41;11.10;;;6.60;;
3781;SDS011;6881;49.962;7.718;2024-01-30T02:00:07;11.17;;;7.30;;
3781;SDS011;6881;49.962;7.718;2024-01-30T02:02:35;12.13;;;6.60;;
3781;SDS011;6881;49.962;7.718;2024-01-30T02:05:01;11.33;;;5.40;;
3781;SDS011;6881;49.962;7.718;2024-01-30T02:07:27;12.67;;;6.53;;
3781;SDS011;6881;49.962;7.718;2024-01-30T02:09:53;15.30;;;6.70;;
3781;SDS011;6881;49.962;7.718;2024-01-30T02:12:18;7.23;;;5.50;;
3781;SDS011;6881;49.962;7.718;2024-01-30T02:14:46;8.23;;;6.03;;
3781;SDS011;6881;49.962;7.718;2024-01-30T02:17:12;8.47;;;6.07;;
3781;SDS011;6881;49.962;7.718;2024-01-30T02:19:38;7.07;;;6.27;;
3781;SDS011;6881;49.962;7.718;2024-01-30T02:22:04;8.93;;;5.20;;
3781;SDS011;6881;49.962;7.718;2024-01-30T02:24:29;11.23;;;6.37;;
3781;SDS011;6881;49.962;7.718;2024-01-30T02:26:55;8.37;;;6.33;;
3781;SDS011;6881;49.962;7.718;2024-01-30T02:29:20;10.00;;;7.40;;
3781;SDS011;6881;49.962;7.718;2024-01-30T02:31:46;9.60;;;6.10;;
3781;SDS011;6881;49.962;7.718;2024-01-30T02:34:11;8.80;;;5.70;;
3781;SDS011;6881;49.962;7.718;2024-01-30T02:36:36;10.20;;;5.97;;
3781;SDS011;6881;49.962;7.718;2024-01-30T02:39:02;9.53;;;6.93;;
3781;SDS011;6881;49.962;7.718;2024-01-30T02:41:27;8.40;;;4.90;;
3781;SDS011;6881;49.962;7.718;2024-01-30T02:43:53;9.50;;;5.77;;
3781;SDS011;6881;49.962;7.718;2024-01-30T02:46:18;9.30;;;6.20;;
3781;SDS011;6881;49.962;7.718;2024-01-30T02:48:43;10.33;;;6.20;;
3781;SDS011;6881;49.962;7.718;2024-01-30T02:51:09;8.50;;;6.13;;
3781;SDS011;6881;49.962;7.718;2024-01-30T02:53:34;11.07;;;6.40;;
3781;SDS011;6881;49.962;7.718;2024-01-30T02:55:59;10.20;;;7.23;;
3781;SDS011;6881;49.962;7.718;2024-01-30T02:58:25;11.20;;;6.73;;
3781;SDS011;6881;49.962;7.718;2024-01-30T03:00:50;12.70;;;6.47;;
3781;SDS011;6881;49.962;7.718;2024-01-30T03:03:15;13.30;;;8.77;;
3781;SDS011;6881;49.962;7.718;2024-01-30T03:05:40;9.60;;;6.97;;
3781;SDS011;6881;49.962;7.718;2024-01-30T03:08:06;10.67;;;6.50;;
3781;SDS011;6881;49.962;7.718;2024-01-30T03:10:31;9.23;;;6.03;;
3781;SDS011;6881;49.962;7.718;2024-01-30T03:12:56;11.33;;;7.57;;
3781;SDS011;6881;49.962;7.718;2024-01-30T03:15:22;11.63;;;6.87;;
3781;SDS011;6881;49.962;7.718;2024-01-30T03:17:48;10.43;;;6.50;;
3781;SDS011;6881;49.962;7.718;2024-01-30T03:20:13;9.33;;;6.20;;
3781;SDS011;6881;49.962;7.718;2024-01-30T03:22:39;14.83;;;7.80;;
3781;SDS011;6881;49.962;7.718;2024-01-30T03:25:04;15.30;;;8.13;;
3781;SDS011;6881;49.962;7.718;2024-01-30T03:27:30;23.47;;;11.03;;
3781;SDS011;6881;49.962;7.718;2024-01-30T03:29:55;26.13;;;12.60;;
3781;SDS011;6881;49.962;7.718;2024-01-30T03:32:20;39.03;;;17.40;;
3781;SDS011;6881;49.962;7.718;2024-01-30T03:34:46;30.60;;;14.70;;
3781;SDS011;6881;49.962;7.718;2024-01-30T03:37:11;27.00;;;14.60;;
3781;SDS011;6881;49.962;7.718;2024-01-30T03:39:36;33.80;;;15.77;;
3781;SDS011;6881;49.962;7.718;2024-01-30T03:42:02;23.70;;;12.37;;
3781;SDS011;6881;49.962;7.718;2024-01-30T03:44:27;17.77;;;10.23;;
3781;SDS011;6881;49.962;7.718;2024-01-30T03:46:52;10.47;;;7.23;;
3781;SDS011;6881;49.962;7.718;2024-01-30T03:49:18;14.90;;;8.70;;
3781;SDS011;6881;49.962;7.718;2024-01-30T03:51:43;12.67;;;7.83;;
3781;SDS011;6881;49.962;7.718;2024-01-30T03:54:09;7.87;;;6.43;;
3781;SDS011;6881;49.962;7.718;2024-01-30T03:56:34;9.03;;;6.33;;
3781;SDS011;6881;49.962;7.718;2024-01-30T03:59:00;11.37;;;7.17;;
3781;SDS011;6881;49.962;7.718;2024-01-30T04:01:27;9.80;;;7.10;;
3781;SDS011;6881;49.962;7.718;2024-01-30T04:03:52;9.63;;;7.40;;
3781;SDS011;6881;49.962;7.718;2024-01-30T04:06:18;11.60;;;7.00;;
3781;SDS011;6881;49.962;7.718;2024-01-30T04:08:43;10.20;;;6.97;;
3781;SDS011;6881;49.962;7.718;2024-01-30T04:11:08;10.53;;;8.03;;
3781;SDS011;6881;49.962;7.718;2024-01-30T04:13:34;12.87;;;9.10;;
3781;SDS011;6881;49.962;7.718;2024-01-30T04:15:59;13.57;;;9.43;;
3781;SDS011;6881;49.962;7.718;2024-01-30T04:18:26;15.87;;;11.13;;
3781;SDS011;6881;49.962;7.718;2024-01-30T04:20:52;14.77;;;10.13;;
3781;SDS011;6881;49.962;7.718;2024-01-30T04:23:17;15.23;;;11.33;;
3781;SDS011;6881;49.962;7.718;2024-01-30T04:25:42;15.47;;;9.93;;
3781;SDS011;6881;49.962;7.718;2024-01-30T04:28:08;15.30;;;10.10;;
3781;SDS011;6881;49.962;7.718;2024-01-30T04:30:33;14.80;;;9.83;;
3781;SDS011;6881;49.962;7.718;2024-01-30T04:32:58;14.57;;;9.77;;
3781;SDS011;6881;49.962;7.718;2024-01-30T04:35:24;10.83;;;7.87;;
3781;SDS011;6881;49.962;7.718;2024-01-30T04:37:50;11.13;;;7.70;;
3781;SDS011;6881;49.962;7.718;2024-01-30T04:40:16;12.70;;;8.40;;
3781;SDS011;6881;49.962;7.718;2024-01-30T04:42:42;13.17;;;8.43;;
3781;SDS011;6881;49.962;7.718;2024-01-30T04:45:07;10.90;;;7.93;;
3781;SDS011;6881;49.962;7.718;2024-01-30T04:47:33;11.30;;;8.57;;
3781;SDS011;6881;49.962;7.718;2024-01-30T04:49:58;10.13;;;7.73;;
3781;SDS011;6881;49.962;7.718;2024-01-30T04:52:23;14.50;;;8.43;;
3781;SDS011;6881;49.962;7.718;2024-01-30T04:54:49;12.93;;;8.67;;
3781;SDS011;6881;49.962;7.718;2024-01-30T04:57:14;12.70;;;8.67;;
3781;SDS011;6881;49.962;7.718;2024-01-30T04:59:39;13.50;;;9.33;;
3781;SDS011;6881;49.962;7.718;2024-01-30T05:02:04;13.60;;;8.90;;
3781;SDS011;6881;49.962;7.718;2024-01-30T05:04:30;13.30;;;9.97;;
3781;SDS011;6881;49.962;7.718;2024-01-30T05:06:55;16.63;;;12.07;;
3781;SDS011;6881;49.962;7.718;2024-01-30T05:09:20;17.03;;;11.87;;
3781;SDS011;6881;49.962;7.718;2024-01-30T05:11:46;21.20;;;12.20;;
3781;SDS011;6881;49.962;7.718;2024-01-30T05:14:11;17.87;;;11.97;;
3781;SDS011;6881;49.962;7.718;2024-01-30T05:16:37;17.67;;;11.40;;
3781;SDS011;6881;49.962;7.718;2024-01-30T05:19:02;15.37;;;10.07;;
3781;SDS011;6881;49.962;7.718;2024-01-30T05:21:27;22.10;;;13.60;;
3781;SDS011;6881;49.962;7.718;2024-01-30T05:23:53;18.20;;;12.87;;
3781;SDS011;6881;49.962;7.718;2024-01-30T05:26:18;16.93;;;11.83;;
3781;SDS011;6881;49.962;7.718;2024-01-30T05:28:43;17.10;;;12.43;;
3781;SDS011;6881;49.962;7.718;2024-01-30T05:31:12;16.47;;;12.70;;
3781;SDS011;6881;49.962;7.718;2024-01-30T05:33:37;17.67;;;12.03;;
3781;SDS011;6881;49.962;7.718;2024-01-30T05:36:03;16.20;;;11.57;;
3781;SDS011;6881;49.962;7.718;2024-01-30T05:38:28;16.17;;;10.47;;
3781;SDS011;6881;49.962;7.718;2024-01-30T05:40:54;14.87;;;10.93;;
3781;SDS011;6881;49.962;7.718;2024-01-30T05:43:19;12.03;;;9.17;;
3781;SDS011;6881;49.962;7.718;2024-01-30T05:45:44;15.30;;;9.60;;
3781;SDS011;6881;49.962;7.718;2024-01-30T05:48:10;18.43;;;9.17;;
3781;SDS011;6881;49.962;7.718;2024-01-30T05:50:35;17.97;;;10.13;;
3781;SDS011;6881;49.962;7.718;2024-01-30T05:53:01;20.53;;;12.67;;
3781;SDS011;6881;49.962;7.718;2024-01-30T05:55:26;23.97;;;13.00;;
3781;SDS011;6881;49.962;7.718;2024-01-30T05:57:51;18.43;;;10.60;;
3781;SDS011;6881;49.962;7.718;2024-01-30T06:00:17;14.87;;;10.63;;
3781;SDS011;6881;49.962;7.718;2024-01-30T06:02:43;14.53;;;10.03;;
3781;SDS011;6881;49.962;7.718;2024-01-30T06:05:08;23.73;;;11.70;;
3781;SDS011;6881;49.962;7.718;2024-01-30T06:07:33;23.70;;;11.20;;
3781;SDS011;6881;49.962;7.718;2024-01-30T06:09:59;17.93;;;9.80;;
3781;SDS011;6881;49.962;7.718;2024-01-30T06:12:27;12.97;;;9.40;;
3781;SDS011;6881;49.962;7.718;2024-01-30T06:14:52;17.37;;;10.50;;
3781;SDS011;6881;49.962;7.718;2024-01-30T06:17:19;16.20;;;11.23;;
3781;SDS011;6881;49.962;7.718;2024-01-30T06:19:44;15.77;;;9.10;;
3781;SDS011;6881;49.962;7.718;2024-01-30T06:22:10;15.03;;;9.57;;
3781;SDS011;6881;49.962;7.718;2024-01-30T06:24:35;12.87;;;9.00;;
3781;SDS011;6881;49.962;7.718;2024-01-30T06:27:00;14.53;;;8.70;;
3781;SDS011;6881;49.962;7.718;2024-01-30T06:29:26;13.90;;;7.97;;
3781;SDS011;6881;49.962;7.718;2024-01-30T06:31:51;12.23;;;7.17;;
3781;SDS011;6881;49.962;7.718;2024-01-30T06:34:17;14.53;;;9.30;;
3781;SDS011;6881;49.962;7.718;2024-01-30T06:36:42;15.00;;;9.57;;
3781;SDS011;6881;49.962;7.718;2024-01-30T06:39:07;11.43;;;8.07;;
3781;SDS011;6881;49.962;7.718;2024-01-30T06:41:33;9.87;;;7.10;;
3781;SDS011;6881;49.962;7.718;2024-01-30T06:43:59;12.33;;;7.93;;
3781;SDS011;6881;49.962;7.718;2024-01-30T06:46:26;10.57;;;8.00;;
3781;SDS011;6881;49.962;7.718;2024-01-30T06:48:52;17.37;;;9.20;;
3781;SDS011;6881;49.962;7.718;2024-01-30T06:51:17;14.47;;;8.40;;
3781;SDS011;6881;49.962;7.718;2024-01-30T06:53:43;12.03;;;8.30;;
3781;SDS011;6881;49.962;7.718;2024-01-30T06:56:08;12.00;;;8.07;;
3781;SDS011;6881;49.962;7.718;2024-01-30T06:58:33;11.47;;;8.57;;
3781;SDS011;6881;49.962;7.718;2024-01-30T07:00:59;14.93;;;8.10;;
3781;SDS011;6881;49.962;7.718;2024-01-30T07:03:24;14.43;;;8.33;;
3781;SDS011;6881;49.962;7.718;2024-01-30T07:05:50;10.40;;;8.27;;
3781;SDS011;6881;49.962;7.718;2024-01-30T07:08:15;16.20;;;10.37;;
3781;SDS011;6881;49.962;7.718;2024-01-30T07:10:44;16.60;;;10.27;;
3781;SDS011;6881;49.962;7.718;2024-01-30T07:13:10;13.20;;;8.07;;
3781;SDS011;6881;49.962;7.718;2024-01-30T07:15:36;10.17;;;8.40;;
3781;SDS011;6881;49.962;7.718;2024-01-30T07:18:02;14.47;;;8.93;;
3781;SDS011;6881;49.962;7.718;2024-01-30T07:20:27;16.50;;;10.80;;
3781;SDS011;6881;49.962;7.718;2024-01-30T07:22:53;11.43;;;8.83;;
3781;SDS011;6881;49.962;7.718;2024-01-30T07:25:18;13.63;;;10.87;;
3781;SDS011;6881;49.962;7.718;2024-01-30T07:27:43;24.83;;;17.67;;
3781;SDS011;6881;49.962;7.718;2024-01-30T07:30:09;23.07;;;18.80;;
3781;SDS011;6881;49.962;7.718;2024-01-30T07:32:34;46.53;;;42.13;;
3781;SDS011;6881;49.962;7.718;2024-01-30T07:34:59;24.30;;;21.77;;
3781;SDS011;6881;49.962;7.718;2024-01-30T07:37:25;22.33;;;16.83;;
3781;SDS011;6881;49.962;7.718;2024-01-30T07:39:50;17.10;;;12.60;;
3781;SDS011;6881;49.962;7.718;2024-01-30T07:42:15;13.07;;;9.40;;
3781;SDS011;6881;49.962;7.718;2024-01-30T07:44:42;13.43;;;10.43;;
3781;SDS011;6881;49.962;7.718;2024-01-30T07:47:07;17.47;;;11.50;;
3781;SDS011;6881;49.962;7.718;2024-01-30T07:49:34;13.60;;;10.43;;
3781;SDS011;6881;49.962;7.718;2024-01-30T07:51:59;13.80;;;9.97;;
3781;SDS011;6881;49.962;7.718;2024-01-30T07:54:25;12.10;;;9.90;;
3781;SDS011;6881;49.962;7.718;2024-01-30T08:03:34;9.20;;;6.90;;
3781;SDS011;6881;49.962;7.718;2024-01-30T08:05:59;10.90;;;7.30;;
3781;SDS011;6881;49.962;7.718;2024-01-30T08:08:24;18.60;;;14.67;;
3781;SDS011;6881;49.962;7.718;2024-01-30T08:10:51;16.83;;;11.47;;
3781;SDS011;6881;49.962;7.718;2024-01-30T08:13:16;17.43;;;12.10;;
3781;SDS011;6881;49.962;7.718;2024-01-30T08:15:42;12.57;;;10.20;;
3781;SDS011;6881;49.962;7.718;2024-01-30T08:18:07;9.73;;;8.00;;
3781;SDS011;6881;49.962;7.718;2024-01-30T08:20:32;10.30;;;9.17;;
3781;SDS011;6881;49.962;7.718;2024-01-30T08:22:58;9.90;;;7.67;;
3781;SDS011;6881;49.962;7.718;2024-01-30T08:25:25;11.17;;;8.57;;
3781;SDS011;6881;49.962;7.718;2024-01-30T08:27:50;11.53;;;9.47;;
3781;SDS011;6881;49.962;7.718;2024-01-30T08:30:16;9.33;;;8.43;;
3781;SDS011;6881;49.962;7.718;2024-01-30T08:32:41;13.90;;;10.27;;
3781;SDS011;6881;49.962;7.718;2024-01-30T08:35:07;15.47;;;9.37;;
3781;SDS011;6881;49.962;7.718;2024-01-30T08:37:33;11.37;;;10.20;;
3781;SDS011;6881;49.962;7.718;2024-01-30T08:39:58;32.07;;;22.27;;
3781;SDS011;6881;49.962;7.718;2024-01-30T08:42:24;35.43;;;23.30;;
3781;SDS011;6881;49.962;7.718;2024-01-30T08:44:50;71.83;;;44.63;;
3781;SDS011;6881;49.962;7.718;2024-01-30T08:47:17;60.03;;;41.33;;
3781;SDS011;6881;49.962;7.718;2024-01-30T08:49:43;45.40;;;28.40;;
3781;SDS011;6881;49.962;7.718;2024-01-30T08:52:09;31.80;;;21.70;;
3781;SDS011;6881;49.962;7.718;2024-01-30T08:54:37;29.07;;;16.63;;
3781;SDS011;6881;49.962;7.718;2024-01-30T08:57:03;22.57;;;15.70;;
3781;SDS011;6881;49.962;7.718;2024-01-30T08:59:29;21.13;;;14.80;;
3781;SDS011;6881;49.962;7.718;2024-01-30T09:01:54;23.37;;;13.60;;
3781;SDS011;6881;49.962;7.718;2024-01-30T09:04:20;25.03;;;13.80;;
3781;SDS011;6881;49.962;7.718;2024-01-30T09:06:46;22.37;;;14.30;;
3781;SDS011;6881;49.962;7.718;2024-01-30T09:09:12;21.07;;;13.60;;
3781;SDS011;6881;49.962;7.718;2024-01-30T09:11:38;15.70;;;12.10;;
3781;SDS011;6881;49.962;7.718;2024-01-30T09:14:03;22.73;;;13.33;;
3781;SDS011;6881;49.962;7.718;2024-01-30T09:16:29;16.03;;;11.10;;
3781;SDS011;6881;49.962;7.718;2024-01-30T09:18:54;15.43;;;10.80;;
3781;SDS011;6881;49.962;7.718;2024-01-30T09:21:19;10.53;;;7.57;;
3781;SDS011;6881;49.962;7.718;2024-01-30T09:23:45;9.23;;;6.87;;
3781;SDS011;6881;49.962;7.718;2024-01-30T09:26:10;17.93;;;10.40;;
3781;SDS011;6881;49.962;7.718;2024-01-30T09:28:37;11.57;;;7.80;;
3781;SDS011;6881;49.962;7.718;2024-01-30T09:31:03;8.10;;;6.50;;
3781;SDS011;6881;49.962;7.718;2024-01-30T09:33:28;7.67;;;6.93;;
3781;SDS011;6881;49.962;7.718;2024-01-30T09:35:53;10.93;;;8.60;;
3781;SDS011;6881;49.962;7.718;2024-01-30T09:38:19;10.63;;;9.43;;
3781;SDS011;6881;49.962;7.718;2024-01-30T09:40:44;20.50;;;13.60;;
3781;SDS011;6881;49.962;7.718;2024-01-30T09:43:16;17.00;;;13.40;;
3781;SDS011;6881;49.962;7.718;2024-01-30T09:45:42;13.93;;;12.40;;
3781;SDS011;6881;49.962;7.718;2024-01-30T09:48:09;15.00;;;13.40;;
3781;SDS011;6881;49.962;7.718;2024-01-30T09:50:35;15.23;;;12.53;;
3781;SDS011;6881;49.962;7.718;2024-01-30T09:53:02;18.43;;;16.53;;
3781;SDS011;6881;49.962;7.718;2024-01-30T09:55:27;18.57;;;14.40;;
3781;SDS011;6881;49.962;7.718;2024-01-30T09:57:53;17.00;;;13.90;;
3781;SDS011;6881;49.962;7.718;2024-01-30T10:00:18;15.93;;;13.90;;
3781;SDS011;6881;49.962;7.718;2024-01-30T10:02:44;20.00;;;17.97;;
3781;SDS011;6881;49.962;7.718;2024-01-30T10:05:10;16.50;;;14.73;;
3781;SDS011;6881;49.962;7.718;2024-01-30T10:07:36;17.77;;;15.97;;
3781;SDS011;6881;49.962;7.718;2024-01-30T10:10:01;22.70;;;19.50;;
3781;SDS011;6881;49.962;7.718;2024-01-30T10:12:27;20.10;;;15.97;;
3781;SDS011;6881;49.962;7.718;2024-01-30T10:14:53;18.97;;;16.87;;
3781;SDS011;6881;49.962;7.718;2024-01-30T10:17:19;21.40;;;16.80;;
3781;SDS011;6881;49.962;7.718;2024-01-30T10:19:46;24.20;;;19.43;;
3781;SDS011;6881;49.962;7.718;2024-01-30T10:22:11;20.90;;;17.03;;
3781;SDS011;6881;49.962;7.718;2024-01-30T10:24:37;17.57;;;12.70;;
3781;SDS011;6881;49.962;7.718;2024-01-30T10:27:02;13.50;;;11.57;;
3781;SDS011;6881;49.962;7.718;2024-01-30T10:29:28;12.53;;;10.73;;
3781;SDS011;6881;49.962;7.718;2024-01-30T10:31:57;14.67;;;11.13;;
3781;SDS011;6881;49.962;7.718;2024-01-30T10:34:26;15.03;;;12.80;;
3781;SDS011;6881;49.962;7.718;2024-01-30T10:36:52;21.03;;;16.07;;
3781;SDS011;6881;49.962;7.718;2024-01-30T10:39:25;21.83;;;17.57;;
3781;SDS011;6881;49.962;7.718;2024-01-30T10:41:54;24.70;;;20.93;;
3781;SDS011;6881;49.962;7.718;2024-01-30T10:44:22;25.17;;;19.87;;
3781;SDS011;6881;49.962;7.718;2024-01-30T10:46:59;27.13;;;22.17;;
3781;SDS011;6881;49.962;7.718;2024-01-30T10:49:26;28.70;;;21.90;;
3781;SDS011;6881;49.962;7.718;2024-01-30T10:51:52;23.57;;;18.47;;
3781;SDS011;6881;49.962;7.718;2024-01-30T10:54:17;22.40;;;16.10;;
3781;SDS011;6881;49.962;7.718;2024-01-30T10:56:43;18.30;;;13.17;;
3781;SDS011;6881;49.962;7.718;2024-01-30T10:59:09;20.50;;;13.77;;
3781;SDS011;6881;49.962;7.718;2024-01-30T11:01:34;16.00;;;13.73;;
3781;SDS011;6881;49.962;7.718;2024-01-30T11:04:00;17.20;;;12.90;;
3781;SDS011;6881;49.962;7.718;2024-01-30T11:06:26;16.60;;;13.03;;
3781;SDS011;6881;49.962;7.718;2024-01-30T11:09:01;15.10;;;13.33;;
3781;SDS011;6881;49.962;7.718;2024-01-30T11:11:46;12.20;;;9.93;;
3781;SDS011;6881;49.962;7.718;2024-01-30T11:14:13;13.77;;;10.50;;
3781;SDS011;6881;49.962;7.718;2024-01-30T11:16:39;13.50;;;10.13;;
3781;SDS011;6881;49.962;7.718;2024-01-30T11:19:05;11.60;;;10.40;;
3781;SDS011;6881;49.962;7.718;2024-01-30T11:21:41;13.00;;;9.63;;
3781;SDS011;6881;49.962;7.718;2024-01-30T11:24:07;10.53;;;8.70;;
3781;SDS011;6881;49.962;7.718;2024-01-30T11:26:32;11.73;;;8.30;;
3781;SDS011;6881;49.962;7.718;2024-01-30T11:28:58;10.33;;;8.60;;
3781;SDS011;6881;49.962;7.718;2024-01-30T11:31:23;12.40;;;8.97;;
3781;SDS011;6881;49.962;7.718;2024-01-30T11:33:52;10.90;;;8.90;;
3781;SDS011;6881;49.962;7.718;2024-01-30T11:36:18;9.73;;;8.47;;
3781;SDS011;6881;49.962;7.718;2024-01-30T11:38:46;8.07;;;7.27;;
3781;SDS011;6881;49.962;7.718;2024-01-30T11:41:11;11.30;;;7.90;;
3781;SDS011;6881;49.962;7.718;2024-01-30T11:43:38;8.57;;;7.50;;
3781;SDS011;6881;49.962;7.718;2024-01-30T11:46:05;11.07;;;7.83;;
3781;SDS011;6881;49.962;7.718;2024-01-30T11:48:31;8.07;;;7.27;;
3781;SDS011;6881;49.962;7.718;2024-01-30T11:50:57;8.20;;;6.97;;
3781;SDS011;6881;49.962;7.718;2024-01-30T11:53:22;13.27;;;7.60;;
3781;SDS011;6881;49.962;7.718;2024-01-30T11:55:51;7.73;;;7.03;;
3781;SDS011;6881;49.962;7.718;2024-01-30T11:58:16;9.10;;;6.73;;
3781;SDS011;6881;49.962;7.718;2024-01-30T12:00:42;9.77;;;6.37;;
3781;SDS011;6881;49.962;7.718;2024-01-30T12:03:07;10.10;;;7.70;;
3781;SDS011;6881;49.962;7.718;2024-01-30T12:05:33;11.73;;;7.83;;
3781;SDS011;6881;49.962;7.718;2024-01-30T12:07:58;9.10;;;7.67;;
3781;SDS011;6881;49.962;7.718;2024-01-30T12:10:24;19.07;;;10.87;;
3781;SDS011;6881;49.962;7.718;2024-01-30T12:12:49;15.63;;;9.80;;
3781;SDS011;6881;49.962;7.718;2024-01-30T12:15:15;10.23;;;8.87;;
3781;SDS011;6881;49.962;7.718;2024-01-30T12:17:41;10.90;;;8.00;;
3781;SDS011;6881;49.962;7.718;2024-01-30T12:20:07;9.83;;;8.00;;
3781;SDS011;6881;49.962;7.718;2024-01-30T12:22:37;9.30;;;7.53;;
3781;SDS011;6881;49.962;7.718;2024-01-30T12:25:25;9.53;;;7.93;;
3781;SDS011;6881;49.962;7.718;2024-01-30T12:27:49;14.53;;;8.13;;
3781;SDS011;6881;49.962;7.718;2024-01-30T12:30:16;12.10;;;9.17;;
3781;SDS011;6881;49.962;7.718;2024-01-30T12:32:42;12.20;;;8.90;;
3781;SDS011;6881;49.962;7.718;2024-01-30T12:35:12;15.77;;;8.77;;
3781;SDS011;6881;49.962;7.718;2024-01-30T12:37:38;11.70;;;9.80;;
3781;SDS011;6881;49.962;7.718;2024-01-30T12:40:04;10.80;;;9.70;;
3781;SDS011;6881;49.962;7.718;2024-01-30T12:42:31;11.50;;;8.90;;
3781;SDS011;6881;49.962;7.718;2024-01-30T12:44:59;11.33;;;9.10;;
3781;SDS011;6881;49.962;7.718;2024-01-30T12:47:25;14.97;;;10.60;;
3781;SDS011;6881;49.962;7.718;2024-01-30T12:49:50;17.33;;;11.60;;
3781;SDS011;6881;49.962;7.718;2024-01-30T12:52:18;12.10;;;9.97;;
3781;SDS011;6881;49.962;7.718;2024-01-30T12:54:44;10.33;;;8.10;;
3781;SDS011;6881;49.962;7.718;2024-01-30T12:57:09;8.80;;;7.70;;
3781;SDS011;6881;49.962;7.718;2024-01-30T12:59:35;7.97;;;7.23;;
3781;SDS011;6881;49.962;7.718;2024-01-30T13:02:00;8.27;;;7.47;;
3781;SDS011;6881;49.962;7.718;2024-01-30T13:04:27;9.70;;;6.77;;
3781;SDS011;6881;49.962;7.718;2024-01-30T13:06:52;9.07;;;7.57;;
3781;SDS011;6881;49.962;7.718;2024-01-30T13:09:18;9.60;;;7.93;;
3781;SDS011;6881;49.962;7.718;2024-01-30T13:11:43;8.40;;;6.83;;
3781;SDS011;6881;49.962;7.718;2024-01-30T13:14:08;8.97;;;7.87;;
3781;SDS011;6881;49.962;7.718;2024-01-30T13:16:34;9.10;;;7.50;;
3781;SDS011;6881;49.962;7.718;2024-01-30T13:18:59;8.93;;;6.90;;
3781;SDS011;6881;49.962;7.718;2024-01-30T13:21:26;9.37;;;7.80;;
3781;SDS011;6881;49.962;7.718;2024-01-30T13:23:51;10.13;;;7.10;;
3781;SDS011;6881;49.962;7.718;2024-01-30T13:26:19;11.83;;;8.33;;
3781;SDS011;6881;49.962;7.718;2024-01-30T13:28:44;11.80;;;8.33;;
3781;SDS011;6881;49.962;7.718;2024-01-30T13:31:10;10.17;;;7.50;;
3781;SDS011;6881;49.962;7.718;2024-01-30T13:33:35;8.47;;;6.67;;
3781;SDS011;6881;49.962;7.718;2024-01-30T13:36:01;10.63;;;7.20;;
3781;SDS011;6881;49.962;7.718;2024-01-30T13:38:26;10.80;;;7.50;;
3781;SDS011;6881;49.962;7.718;2024-01-30T13:40:51;9.10;;;7.40;;
3781;SDS011;6881;49.962;7.718;2024-01-30T13:43:17;8.57;;;7.67;;
3781;SDS011;6881;49.962;7.718;2024-01-30T13:45:42;8.83;;;8.00;;
3781;SDS011;6881;49.962;7.718;2024-01-30T13:48:08;14.50;;;8.97;;
3781;SDS011;6881;49.962;7.718;2024-01-30T13:50:33;13.50;;;7.90;;
3781;SDS011;6881;49.962;7.718;2024-01-30T13:52:59;10.00;;;7.30;;
3781;SDS011;6881;49.962;7.718;2024-01-30T13:55:24;8.40;;;7.20;;
3781;SDS011;6881;49.962;7.718;2024-01-30T13:57:50;8.80;;;7.90;;
3781;SDS011;6881;49.962;7.718;2024-01-30T14:00:16;10.23;;;7.37;;
3781;SDS011;6881;49.962;7.718;2024-01-30T14:02:42;12.30;;;8.43;;
3781;SDS011;6881;49.962;7.718;2024-01-30T14:05:07;13.97;;;9.00;;
3781;SDS011;6881;49.962;7.718;2024-01-30T14:07:33;11.20;;;8.07;;
3781;SDS011;6881;49.962;7.718;2024-01-30T14:10:00;14.07;;;10.07;;
3781;SDS011;6881;49.962;7.718;2024-01-30T14:12:25;13.70;;;10.37;;
3781;SDS011;6881;49.962;7.718;2024-01-30T14:14:51;22.50;;;13.73;;
3781;SDS011;6881;49.962;7.718;2024-01-30T14:17:16;23.97;;;12.83;;
3781;SDS011;6881;49.962;7.718;2024-01-30T14:19:42;34.73;;;19.50;;
3781;SDS011;6881;49.962;7.718;2024-01-30T14:22:07;16.47;;;11.43;;
3781;SDS011;6881;49.962;7.718;2024-01-30T14:24:33;11.07;;;8.00;;
3781;SDS011;6881;49.962;7.718;2024-01-30T14:26:58;14.70;;;9.90;;
3781;SDS011;6881;49.962;7.718;2024-01-30T14:29:24;34.10;;;16.73;;
3781;SDS011;6881;49.962;7.718;2024-01-30T14:31:49;15.27;;;9.40;;
3781;SDS011;6881;49.962;7.718;2024-01-30T14:34:15;17.00;;;9.53;;
3781;SDS011;6881;49.962;7.718;2024-01-30T14:36:40;11.23;;;7.67;;
3781;SDS011;6881;49.962;7.718;2024-01-30T14:39:05;17.40;;;10.80;;
3781;SDS011;6881;49.962;7.718;2024-01-30T14:41:32;19.40;;;14.20;;
3781;SDS011;6881;49.962;7.718;2024-01-30T14:43:57;17.90;;;12.60;;
3781;SDS011;6881;49.962;7.718;2024-01-30T14:46:22;20.80;;;12.00;;
3781;SDS011;6881;49.962;7.718;2024-01-30T14:48:48;11.87;;;9.10;;
3781;SDS011;6881;49.962;7.718;2024-01-30T14:51:16;14.40;;;8.90;;
3781;SDS011;6881;49.962;7.718;2024-01-30T14:53:42;12.33;;;7.17;;
3781;SDS011;6881;49.962;7.718;2024-01-30T14:56:08;11.07;;;8.40;;
3781;SDS011;6881;49.962;7.718;2024-01-30T14:58:33;10.57;;;8.60;;